Time;durP1;ratioP1;P1;durP2;ratioP2;P2;SDS_P1;SDS_P2;PMS_P1;PMS_P2;Temp;Humidity;BMP_temperature;BMP_pressure;BME280_temperature;BME280_humidity;BME280_pressure;Samples;Min_cycle;Max_cycle;Signal;HPM_P1;HPM_P2
2022/10/05 00:03:09;;;;;;;22.53;7.40;;;;;6.20;96951.00;;;;8359188;28;20238;-71
2022/10/05 00:07:16;;;;;;;30.17;8.70;;;;;6.20;96948.00;;;;8359424;28;20570;-71
2022/10/05 00:11:51;;;;;;;23.57;7.90;;;;;6.30;96939.00;;;;8359910;28;20229;-71
2022/10/05 00:15:59;;;;;;;95.10;11.77;;;;;6.30;96933.00;;;;8358288;28;20243;-71
2022/10/05 00:20:18;;;;;;;18.27;7.47;;;;;6.20;96925.00;;;;8359332;28;20570;-72
2022/10/05 00:24:23;;;;;;;17.00;7.83;;;;;6.30;96928.00;;;;8360922;28;20688;-72
2022/10/05 00:28:30;;;;;;;19.20;7.80;;;;;6.30;96921.00;;;;8365140;28;20258;-72
2022/10/05 00:32:33;;;;;;;22.80;8.27;;;;;6.30;96926.00;;;;8364650;28;20236;-72
2022/10/05 00:36:38;;;;;;;17.83;8.20;;;;;6.40;96924.00;;;;8363766;28;20596;-72
2022/10/05 00:41:12;;;;;;;19.10;8.30;;;;;6.50;96928.00;;;;8363465;28;20232;-71
2022/10/05 00:45:22;;;;;;;19.47;7.90;;;;;6.50;96922.00;;;;8364182;28;20219;-71
2022/10/05 00:49:56;;;;;;;17.73;7.93;;;;;6.50;96929.00;;;;8362866;28;20654;-71
2022/10/05 00:54:16;;;;;;;16.50;8.07;;;;;6.50;96912.00;;;;8364640;28;20220;-72
2022/10/05 00:58:29;;;;;;;22.03;8.50;;;;;6.60;96907.00;;;;8363901;28;20272;-70
2022/10/05 01:03:01;;;;;;;18.47;7.63;;;;;6.60;96899.00;;;;8364269;28;20535;-71
2022/10/05 01:07:16;;;;;;;18.53;7.60;;;;;6.60;96911.00;;;;8363930;28;20220;-71
2022/10/05 01:11:43;;;;;;;20.77;8.17;;;;;6.50;96897.00;;;;8364275;28;20251;-71
2022/10/05 01:15:54;;;;;;;22.47;8.40;;;;;6.50;96893.00;;;;8363335;28;20212;-70
2022/10/05 01:20:15;;;;;;;23.87;9.00;;;;;6.50;96898.00;;;;8364312;28;20282;-71
2022/10/05 01:24:41;;;;;;;20.93;8.43;;;;;6.50;96892.00;;;;8362738;28;20239;-71
2022/10/05 01:28:52;;;;;;;20.63;7.43;;;;;6.60;96897.00;;;;8363431;28;20760;-71
2022/10/05 01:33:25;;;;;;;22.00;8.97;;;;;6.60;96892.00;;;;8362771;28;20229;-71
2022/10/05 01:37:40;;;;;;;17.70;7.27;;;;;6.60;96894.00;;;;8362217;28;20220;-71
2022/10/05 01:41:53;;;;;;;20.80;8.00;;;;;6.50;96898.00;;;;8362846;28;20228;-71
2022/10/05 01:46:03;;;;;;;28.63;9.90;;;;;6.50;96881.00;;;;8363210;28;20243;-71
2022/10/05 01:50:17;;;;;;;21.43;8.80;;;;;6.60;96883.00;;;;8352322;28;20225;-71
2022/10/05 01:54:32;;;;;;;27.87;9.90;;;;;6.50;96872.00;;;;8362910;28;20217;-71
2022/10/05 01:59:01;;;;;;;25.70;9.50;;;;;6.50;96883.00;;;;8362115;28;20224;-72
2022/10/05 02:03:37;;;;;;;27.47;8.83;;;;;6.60;96888.00;;;;8361298;28;20212;-72
2022/10/05 02:08:12;;;;;;;22.23;9.03;;;;;6.60;96880.00;;;;8362148;28;20269;-71
2022/10/05 02:12:44;;;;;;;24.63;8.93;;;;;6.70;96868.00;;;;8362110;28;20224;-71
2022/10/05 02:16:49;;;;;;;27.00;8.97;;;;;6.70;96878.00;;;;8361584;28;20556;-68
2022/10/05 02:21:25;;;;;;;21.20;8.17;;;;;6.60;96867.00;;;;8362050;28;20228;-69
2022/10/05 02:25:31;;;;;;;20.30;7.50;;;;;6.50;96871.00;;;;8361206;28;20224;-69
2022/10/05 02:30:06;;;;;;;18.27;8.17;;;;;6.40;96884.00;;;;8360751;28;20227;-69
2022/10/05 02:34:45;;;;;;;25.37;8.30;;;;;6.40;96893.00;;;;8362055;28;20626;-68
2022/10/05 02:39:00;;;;;;;18.30;8.30;;;;;6.50;96889.00;;;;8361270;28;20243;-68
2022/10/05 02:43:16;;;;;;;21.17;8.20;;;;;6.50;96895.00;;;;8360735;28;20216;-68
2022/10/05 02:47:45;;;;;;;20.03;8.47;;;;;6.60;96885.00;;;;8360062;28;20251;-68
2022/10/05 02:51:56;;;;;;;23.30;8.60;;;;;6.60;96880.00;;;;8360641;28;20221;-68
2022/10/05 02:56:27;;;;;;;22.83;7.67;;;;;6.50;96881.00;;;;8360326;28;20286;-68
2022/10/05 03:00:34;;;;;;;23.40;8.03;;;;;6.40;96878.00;;;;8359402;28;20221;-67
2022/10/05 03:05:09;;;;;;;15.03;7.80;;;;;6.30;96886.00;;;;8359491;28;20213;-67
2022/10/05 03:09:15;;;;;;;14.33;6.83;;;;;6.20;96885.00;;;;8361038;28;20561;-68
2022/10/05 03:13:58;;;;;;;16.07;7.07;;;;;6.10;96874.00;;;;8357429;28;20573;-68
2022/10/05 03:18:11;;;;;;;26.83;7.57;;;;;5.90;96871.00;;;;8360212;28;20220;-68
2022/10/05 03:22:42;;;;;;;20.63;9.17;;;;;5.90;96856.00;;;;8360036;28;20262;-68
2022/10/05 03:26:56;;;;;;;20.63;8.47;;;;;6.00;96851.00;;;;8359622;28;20224;-67
2022/10/05 03:31:06;;;;;;;20.77;7.73;;;;;6.00;96850.00;;;;8348313;28;20500;-68
2022/10/05 03:35:13;;;;;;;21.20;8.07;;;;;6.00;96841.00;;;;8358976;28;20315;-68
2022/10/05 03:39:47;;;;;;;19.80;9.47;;;;;6.00;96834.00;;;;8352603;28;20228;-68
2022/10/05 03:44:25;;;;;;;20.13;8.60;;;;;6.00;96845.00;;;;8357362;28;20223;-67
2022/10/05 03:49:01;;;;;;;27.23;9.40;;;;;6.00;96841.00;;;;8358320;28;20231;-68
2022/10/05 03:53:41;;;;;;;109.23;11.20;;;;;6.00;96838.00;;;;8358984;28;20216;-69
2022/10/05 03:58:15;;;;;;;21.60;9.43;;;;;5.90;96842.00;;;;8360969;28;20210;-68
2022/10/05 04:02:50;;;;;;;20.10;9.90;;;;;6.00;96842.00;;;;8365789;28;20235;-68
2022/10/05 04:07:34;;;;;;;17.60;9.20;;;;;6.00;96843.00;;;;8365108;28;20299;-68
2022/10/05 04:12:06;;;;;;;20.43;9.87;;;;;6.10;96847.00;;;;8364913;28;20213;-68
2022/10/05 04:16:40;;;;;;;32.03;10.77;;;;;6.20;96858.00;;;;8358775;28;20219;-67
2022/10/05 04:21:20;;;;;;;26.40;9.87;;;;;6.30;96854.00;;;;8365170;28;20281;-68
2022/10/05 04:25:57;;;;;;;139.17;15.33;;;;;6.30;96860.00;;;;8365298;28;20347;-68
2022/10/05 04:30:33;;;;;;;732.33;40.30;;;;;6.30;96855.00;;;;8363994;28;20219;-68
2022/10/05 04:35:24;;;;;;;334.90;21.97;;;;;6.20;96861.00;;;;8364774;28;20649;-67
2022/10/05 04:39:55;;;;;;;613.57;31.73;;;;;6.20;96850.00;;;;8229983;28;20238;-68
2022/10/05 04:44:33;;;;;;;46.17;10.93;;;;;6.20;96843.00;;;;8218692;28;20223;-68
2022/10/05 04:49:10;;;;;;;537.97;30.13;;;;;6.10;96833.00;;;;8353211;28;20553;-67
2022/10/05 04:53:40;;;;;;;169.47;17.50;;;;;6.00;96833.00;;;;8363262;28;20220;-66
2022/10/05 04:58:06;;;;;;;27.63;11.17;;;;;6.10;96844.00;;;;8364231;28;20243;-67
2022/10/05 05:02:55;;;;;;;52.33;13.33;;;;;6.30;96837.00;;;;8363857;28;20562;-67
2022/10/05 05:07:29;;;;;;;58.03;12.50;;;;;6.40;96837.00;;;;8363830;28;20215;-67
2022/10/05 05:12:07;;;;;;;296.10;24.67;;;;;6.50;96827.00;;;;8362533;28;20664;-68
2022/10/05 05:16:18;;;;;;;81.00;14.07;;;;;6.70;96821.00;;;;8363660;28;20594;-68
2022/10/05 05:20:53;;;;;;;74.70;11.97;;;;;6.70;96815.00;;;;8362949;28;20232;-68
2022/10/05 05:25:34;;;;;;;52.77;12.50;;;;;6.80;96823.00;;;;8363282;28;20217;-67
2022/10/05 05:30:04;;;;;;;296.47;22.17;;;;;6.90;96814.00;;;;8363121;28;20258;-68
2022/10/05 05:34:44;;;;;;;128.87;13.77;;;;;6.90;96827.00;;;;8363647;28;20693;-68
2022/10/05 05:39:21;;;;;;;30.13;10.67;;;;;6.80;96821.00;;;;8361890;28;20262;-70
2022/10/05 05:43:53;;;;;;;40.37;11.40;;;;;6.90;96825.00;;;;8362775;28;20231;-68
2022/10/05 05:48:30;;;;;;;31.53;11.60;;;;;7.00;96837.00;;;;8363777;28;20220;-68
2022/10/05 05:53:05;;;;;;;23.80;10.50;;;;;7.10;96851.00;;;;8361868;28;20223;-68
2022/10/05 05:57:43;;;;;;;24.50;10.87;;;;;7.20;96853.00;;;;8362228;28;20232;-68
2022/10/05 06:07:05;;;;;;;29.80;11.70;;;;;7.40;96862.00;;;;8362287;28;20273;-68
2022/10/05 06:11:38;;;;;;;20.50;9.77;;;;;7.50;96866.00;;;;8361461;28;20231;-68
2022/10/05 06:16:21;;;;;;;49.40;10.23;;;;;7.40;96872.00;;;;8361561;28;20220;-69
2022/10/05 06:20:28;;;;;;;27.57;9.10;;;;;7.40;96866.00;;;;8361255;28;20546;-68
2022/10/05 06:24:35;;;;;;;75.30;8.57;;;;;7.40;96864.00;;;;8362505;28;20290;-69
2022/10/05 06:28:38;;;;;;;74.50;10.43;;;;;7.40;96869.00;;;;8361381;28;20224;-68
2022/10/05 06:33:21;;;;;;;112.37;12.17;;;;;7.50;96862.00;;;;8361402;28;20228;-69
2022/10/05 06:37:37;;;;;;;89.27;12.63;;;;;7.70;96874.00;;;;8360717;28;20668;-69
2022/10/05 06:42:09;;;;;;;153.53;14.67;;;;;7.90;96884.00;;;;8361505;28;20232;-68
2022/10/05 06:46:36;;;;;;;109.77;15.17;;;;;8.30;96890.00;;;;8360271;28;20247;-69
2022/10/05 06:51:12;;;;;;;35.13;11.03;;;;;8.60;96897.00;;;;8360622;28;20258;-68
2022/10/05 06:55:55;;;;;;;33.67;11.00;;;;;8.90;96893.00;;;;8351665;28;20220;-69
2022/10/05 07:00:28;;;;;;;26.87;10.10;;;;;9.10;96898.00;;;;8358851;28;20252;-68
2022/10/05 07:05:09;;;;;;;21.57;9.87;;;;;9.20;96913.00;;;;8359630;28;20577;-68
2022/10/05 07:09:52;;;;;;;23.33;10.07;;;;;9.30;96915.00;;;;8359518;28;20252;-68
2022/10/05 07:14:27;;;;;;;24.27;10.33;;;;;9.50;96926.00;;;;8359967;28;20225;-68
2022/10/05 07:19:06;;;;;;;22.87;10.40;;;;;9.60;96931.00;;;;8359555;28;20224;-68
2022/10/05 07:23:41;;;;;;;25.60;10.50;;;;;9.60;96936.00;;;;8359552;28;20646;-68
2022/10/05 07:27:53;;;;;;;19.77;9.60;;;;;9.70;96926.00;;;;8359248;28;20212;-69
2022/10/05 07:32:27;;;;;;;18.87;9.93;;;;;9.90;96928.00;;;;8360848;28;20224;-69
2022/10/05 07:41:36;;;;;;;20.40;10.02;;;;;10.40;96943.00;;;;8369963;28;20228;-69
2022/10/05 07:46:05;;;;;;;26.27;9.53;;;;;10.70;96945.00;;;;8369549;28;20217;-69
2022/10/05 07:50:36;;;;;;;19.10;9.40;;;;;11.00;96945.00;;;;8369605;28;20224;-67
2022/10/05 07:55:12;;;;;;;14.60;8.77;;;;;11.20;96950.00;;;;8368719;28;20229;-70
2022/10/05 07:59:56;;;;;;;17.60;9.40;;;;;11.50;96950.00;;;;8370290;28;20561;-72
2022/10/05 08:09:37;;;;;;;15.68;8.32;;;;;12.00;96943.00;;;;8371091;28;20218;-70
2022/10/05 08:14:15;;;;;;;14.68;8.00;;;;;12.30;96945.00;;;;8369954;28;20638;-71
2022/10/05 08:18:53;;;;;;;15.48;8.23;;;;;12.50;96939.00;;;;8369770;28;20226;-72
2022/10/05 08:23:25;;;;;;;14.35;8.15;;;;;12.80;96939.00;;;;8370101;28;20218;-73
2022/10/05 08:27:36;;;;;;;13.13;7.05;;;;;13.10;96939.00;;;;8369930;28;20234;-72
2022/10/05 08:32:05;;;;;;;14.32;7.35;;;;;13.40;96943.00;;;;8370277;28;20275;-73
2022/10/05 08:36:54;;;;;;;10.63;6.85;;;;;13.70;96949.00;;;;8370328;28;20635;-72
2022/10/05 08:46:44;;;;;;;11.82;5.90;;;;;14.30;96946.00;;;;8363859;28;20273;-74
2022/10/05 08:51:16;;;;;;;9.43;5.38;;;;;14.50;96940.00;;;;8364645;28;20266;-78
2022/10/05 08:55:57;;;;;;;10.48;5.22;;;;;14.70;96947.00;;;;8346575;28;20270;-76
2022/10/05 09:00:10;;;;;;;9.48;4.82;;;;;14.90;96948.00;;;;8363526;28;20215;-76
2022/10/05 09:04:42;;;;;;;6.05;4.82;;;;;15.00;96944.00;;;;8364318;28;20228;-76
2022/10/05 09:09:02;;;;;;;10.23;4.68;;;;;15.20;96961.00;;;;8363408;28;20641;-77
2022/10/05 09:13:30;;;;;;;8.48;5.03;;;;;15.40;96953.00;;;;8360699;28;20231;-78
2022/10/05 09:18:16;;;;;;;6.40;4.32;;;;;15.60;96958.00;;;;8364362;28;20262;-74
2022/10/05 09:22:58;;;;;;;8.02;4.50;;;;;16.00;96955.00;;;;8363155;28;20220;-74
2022/10/05 09:27:48;;;;;;;6.53;5.13;;;;;16.50;96961.00;;;;8358966;28;20209;-76
2022/10/05 09:32:43;;;;;;;5.05;4.32;;;;;17.10;96961.00;;;;8363291;28;20228;-77
2022/10/05 09:37:20;;;;;;;6.20;3.90;;;;;17.70;96960.00;;;;8261627;28;20361;-78
2022/10/05 09:41:50;;;;;;;6.63;4.63;;;;;18.20;96957.00;;;;8321312;28;20224;-76
2022/10/05 09:46:22;;;;;;;7.88;4.30;;;;;18.50;96954.00;;;;8362564;28;20217;-77
2022/10/05 09:51:31;;;;;;;5.03;3.70;;;;;18.90;96955.00;;;;8362593;28;20216;-76
2022/10/05 09:56:24;;;;;;;7.28;3.90;;;;;19.10;96948.00;;;;8227921;28;20281;-78
2022/10/05 10:00:43;;;;;;;5.40;3.85;;;;;19.50;96953.00;;;;8312053;28;20278;-79
2022/10/05 10:05:38;;;;;;;5.72;4.38;;;;;19.90;96943.00;;;;8361240;28;20255;-76
2022/10/05 10:10:33;;;;;;;5.10;3.95;;;;;20.00;96944.00;;;;8359796;28;20247;-75
2022/10/05 10:15:08;;;;;;;4.82;3.70;;;;;20.20;96928.00;;;;8360407;28;20654;-74
2022/10/05 10:20:00;;;;;;;4.63;3.70;;;;;20.20;96925.00;;;;8354778;28;20224;-74
2022/10/05 10:24:38;;;;;;;4.55;4.15;;;;;20.10;96927.00;;;;8361896;28;20535;-74
2022/10/05 10:29:28;;;;;;;4.57;3.78;;;;;20.60;96921.00;;;;8361152;28;20224;-75
2022/10/05 10:34:03;;;;;;;3.38;3.08;;;;;20.80;96912.00;;;;8260140;28;20280;-74
2022/10/05 10:38:41;;;;;;;4.97;3.40;;;;;20.70;96912.00;;;;8253391;28;20223;-75
2022/10/05 10:42:59;;;;;;;3.25;3.00;;;;;20.60;96914.00;;;;8360457;28;20535;-78
2022/10/05 10:47:50;;;;;;;5.97;2.95;;;;;20.70;96906.00;;;;8360730;28;20310;-77
2022/10/05 10:52:37;;;;;;;4.25;3.10;;;;;20.90;96911.00;;;;8360966;28;20645;-77
2022/10/05 10:57:09;;;;;;;2.60;2.40;;;;;21.10;96910.00;;;;8359828;28;20232;-78
2022/10/05 11:01:43;;;;;;;4.20;2.88;;;;;21.30;96914.00;;;;8360371;28;20236;-77
2022/10/05 11:06:23;;;;;;;3.10;2.80;;;;;21.50;96915.00;;;;8359836;28;20227;-77
2022/10/05 11:11:16;;;;;;;4.50;2.72;;;;;21.80;96903.00;;;;8359699;28;20213;-77
2022/10/05 11:15:56;;;;;;;2.78;2.55;;;;;22.00;96908.00;;;;8258494;28;20220;-77
2022/10/05 11:20:57;;;;;;;4.07;2.63;;;;;22.10;96905.00;;;;8258879;28;20222;-76
2022/10/05 11:25:48;;;;;;;4.53;2.30;;;;;22.30;96889.00;;;;8357629;28;20634;-78
2022/10/05 11:30:28;;;;;;;3.97;2.22;;;;;22.60;96895.00;;;;8258279;28;20293;-77
2022/10/05 11:34:48;;;;;;;2.50;2.30;;;;;22.80;96884.00;;;;8258279;28;20257;-78
2022/10/05 11:44:44;;;;;;;2.67;2.15;;;;;22.90;96884.00;;;;8359993;28;20230;-78
2022/10/05 11:49:28;;;;;;;4.25;2.65;;;;;22.90;96882.00;;;;8359580;28;20216;-76
2022/10/05 11:53:39;;;;;;;2.42;2.22;;;;;22.90;96880.00;;;;8359898;28;20531;-77
2022/10/05 11:57:49;;;;;;;2.42;2.30;;;;;23.00;96878.00;;;;8358817;28;20220;-76
2022/10/05 12:02:00;;;;;;;2.50;2.08;;;;;23.00;96869.00;;;;8359798;28;20357;-78
2022/10/05 12:06:37;;;;;;;2.75;2.45;;;;;23.00;96866.00;;;;8358861;28;20216;-76
2022/10/05 12:11:08;;;;;;;5.68;2.78;;;;;23.00;96865.00;;;;8358929;28;20217;-76
2022/10/05 12:15:46;;;;;;;2.75;2.55;;;;;22.90;96860.00;;;;8360137;28;20224;-77
2022/10/05 12:20:22;;;;;;;2.28;2.10;;;;;22.90;96858.00;;;;8362995;28;20216;-78
2022/10/05 12:25:14;;;;;;;2.42;2.22;;;;;22.90;96864.00;;;;8365420;28;20269;-77
2022/10/05 12:29:44;;;;;;;3.17;2.58;;;;;22.90;96860.00;;;;8231590;28;20227;-77
2022/10/05 12:34:17;;;;;;;3.65;2.35;;;;;22.90;96858.00;;;;8231505;28;20636;-76
2022/10/05 12:38:48;;;;;;;2.72;2.30;;;;;22.80;96850.00;;;;8350947;28;20596;-76
2022/10/05 12:43:31;;;;;;;2.47;2.10;;;;;22.90;96845.00;;;;8363544;28;20292;-76
2022/10/05 12:47:48;;;;;;;4.43;2.67;;;;;22.90;96842.00;;;;8364921;28;20626;-77
2022/10/05 12:52:27;;;;;;;2.10;2.00;;;;;22.80;96845.00;;;;8364265;28;20642;-77
2022/10/05 12:56:54;;;;;;;3.47;2.40;;;;;22.70;96854.00;;;;8362754;28;20224;-76
2022/10/05 13:01:27;;;;;;;4.07;2.22;;;;;22.70;96849.00;;;;8364184;28;20703;-76
2022/10/05 13:10:52;;;;;;;2.58;2.38;;;;;22.70;96857.00;;;;8363256;28;20223;-75
2022/10/05 13:15:26;;;;;;;2.35;2.05;;;;;22.60;96854.00;;;;8364222;28;20565;-75
2022/10/05 13:20:01;;;;;;;2.33;2.13;;;;;22.60;96848.00;;;;8363292;28;20220;-75
2022/10/05 13:24:38;;;;;;;3.60;2.53;;;;;22.60;96854.00;;;;8363217;28;20621;-75
2022/10/05 13:29:19;;;;;;;3.72;2.28;;;;;22.60;96858.00;;;;8363483;28;20223;-75
2022/10/05 13:33:54;;;;;;;9.13;2.35;;;;;22.60;96861.00;;;;8362797;28;20332;-75
2022/10/05 13:38:29;;;;;;;5.18;2.78;;;;;22.70;96862.00;;;;8363137;28;20216;-76
2022/10/05 13:43:01;;;;;;;2.17;2.00;;;;;22.70;96859.00;;;;8353790;28;20255;-74
2022/10/05 13:47:37;;;;;;;3.85;2.83;;;;;22.60;96857.00;;;;8353510;28;20239;-75
2022/10/05 13:52:16;;;;;;;3.80;2.38;;;;;22.60;96855.00;;;;8362245;28;20685;-76
2022/10/05 13:56:25;;;;;;;3.50;2.40;;;;;22.70;96855.00;;;;8362156;28;20227;-76
2022/10/05 14:00:30;;;;;;;2.28;2.13;;;;;22.80;96857.00;;;;8361466;28;20223;-71
2022/10/05 14:09:51;;;;;;;2.83;2.30;;;;;22.70;96846.00;;;;8362230;28;20243;-71
2022/10/05 14:14:27;;;;;;;4.35;2.53;;;;;22.70;96846.00;;;;8362746;28;20251;-70
2022/10/05 14:19:17;;;;;;;2.58;2.35;;;;;22.50;96841.00;;;;8361477;28;20527;-71
2022/10/05 14:23:38;;;;;;;2.67;2.47;;;;;22.40;96840.00;;;;8360630;28;20235;-71
2022/10/05 14:28:13;;;;;;;2.25;2.15;;;;;22.30;96837.00;;;;8346238;28;20232;-69
2022/10/05 14:32:54;;;;;;;3.42;2.80;;;;;22.30;96835.00;;;;8362302;28;20221;-71
2022/10/05 14:37:31;;;;;;;4.13;2.92;;;;;22.30;96833.00;;;;8360551;28;20237;-71
2022/10/05 14:42:20;;;;;;;2.75;2.55;;;;;22.20;96822.00;;;;8359926;28;20220;-71
2022/10/05 14:51:42;;;;;;;2.88;2.67;;;;;22.00;96814.00;;;;8360001;28;20234;-71
2022/10/05 14:56:26;;;;;;;3.22;2.60;;;;;21.90;96812.00;;;;8360278;28;20642;-71
2022/10/05 15:00:55;;;;;;;2.63;2.42;;;;;21.90;96800.00;;;;8359505;28;20242;-71
2022/10/05 15:05:36;;;;;;;3.22;2.70;;;;;21.80;96802.00;;;;8360362;28;20638;-71
2022/10/05 15:10:28;;;;;;;4.20;2.85;;;;;21.70;96799.00;;;;8358917;28;20274;-71
2022/10/05 15:14:56;;;;;;;3.45;2.72;;;;;21.60;96800.00;;;;8360804;28;20223;-71
2022/10/05 15:19:36;;;;;;;3.92;2.60;;;;;21.50;96804.00;;;;8360161;28;20270;-71
2022/10/05 15:24:06;;;;;;;6.07;2.80;;;;;21.40;96802.00;;;;8359500;28;20684;-72
2022/10/05 15:28:47;;;;;;;9.10;5.95;;;;;21.30;96804.00;;;;8359735;28;20224;-71
2022/10/05 15:33:21;;;;;;;16.98;9.43;;;;;21.10;96804.00;;;;8361069;28;20216;-71
2022/10/05 15:37:30;;;;;;;6.93;5.20;;;;;21.00;96803.00;;;;8315413;28;20225;-71
2022/10/05 15:42:03;;;;;;;9.23;4.93;;;;;20.70;96797.00;;;;8359342;28;20251;-71
2022/10/05 15:46:37;;;;;;;6.22;3.88;;;;;20.50;96802.00;;;;8354363;28;20239;-71
2022/10/05 15:51:22;;;;;;;5.47;3.70;;;;;20.30;96799.00;;;;8355648;28;20609;-71
2022/10/05 15:55:51;;;;;;;5.55;4.15;;;;;20.10;96805.00;;;;8362899;28;20239;-71
2022/10/05 16:00:25;;;;;;;29.35;17.63;;;;;19.90;96798.00;;;;8365640;28;20236;-72
2022/10/05 16:04:40;;;;;;;13.32;8.93;;;;;19.60;96809.00;;;;8365413;28;20307;-72
2022/10/05 16:09:13;;;;;;;14.55;9.30;;;;;19.50;96803.00;;;;8363457;28;20681;-73
2022/10/05 16:13:45;;;;;;;37.70;27.98;;;;;19.30;96803.00;;;;8365554;28;20224;-72
2022/10/05 16:18:31;;;;;;;58.22;37.35;;;;;19.00;96800.00;;;;8364991;28;20224;-72
2022/10/05 16:23:07;;;;;;;16.95;5.60;;;;;18.80;96800.00;;;;8363894;28;20700;-71
2022/10/05 16:27:46;;;;;;;8.43;5.28;;;;;18.50;96797.00;;;;8364168;28;20627;-72
2022/10/05 16:32:17;;;;;;;7.47;4.75;;;;;18.20;96806.00;;;;8364679;28;20285;-72
2022/10/05 16:36:52;;;;;;;6.32;4.18;;;;;17.90;96800.00;;;;8364224;28;20630;-72
2022/10/05 16:41:33;;;;;;;4.95;4.15;;;;;17.70;96802.00;;;;8363981;28;20574;-72
2022/10/05 16:46:11;;;;;;;10.57;5.30;;;;;17.40;96801.00;;;;8364084;28;20543;-72
2022/10/05 16:50:43;;;;;;;7.43;5.10;;;;;17.10;96799.00;;;;8363593;28;20270;-72
2022/10/05 16:55:20;;;;;;;10.27;5.88;;;;;16.90;96809.00;;;;8364726;28;20627;-72
2022/10/05 17:00:00;;;;;;;7.03;5.50;;;;;16.70;96812.00;;;;8363216;28;20570;-72
2022/10/05 17:04:45;;;;;;;13.10;8.90;;;;;16.50;96812.00;;;;8363105;28;20232;-72
2022/10/05 17:09:34;;;;;;;16.48;9.73;;;;;16.40;96828.00;;;;8359370;28;20274;-73
2022/10/05 17:14:20;;;;;;;26.73;18.92;;;;;16.40;96826.00;;;;8363930;28;20275;-72
2022/10/05 17:18:55;;;;;;;18.90;16.33;;;;;16.30;96826.00;;;;8361031;28;20330;-73
2022/10/05 17:23:31;;;;;;;15.07;10.00;;;;;16.20;96828.00;;;;8360773;28;20216;-73
2022/10/05 17:28:20;;;;;;;21.05;10.68;;;;;16.20;96838.00;;;;8360100;28;20589;-72
2022/10/05 17:37:42;;;;;;;11.95;8.93;;;;;16.00;96836.00;;;;8360127;28;20223;-72
2022/10/05 17:42:23;;;;;;;10.98;7.43;;;;;16.00;96842.00;;;;8361186;28;20303;-71
2022/10/05 17:47:03;;;;;;;16.95;12.90;;;;;15.90;96845.00;;;;8362023;28;20235;-71
2022/10/05 17:56:54;;;;;;;11.40;5.93;;;;;15.70;96850.00;;;;8361224;28;20226;-72
2022/10/05 18:06:37;;;;;;;10.48;7.43;;;;;15.50;96857.00;;;;8362147;28;20242;-72
2022/10/05 18:11:16;;;;;;;9.48;6.53;;;;;15.30;96865.00;;;;8361363;28;20654;-73
2022/10/05 18:15:50;;;;;;;9.98;6.32;;;;;15.20;96874.00;;;;8351113;28;20220;-71
2022/10/05 18:20:30;;;;;;;12.60;6.13;;;;;15.20;96862.00;;;;8351441;28;20229;-71
2022/10/05 18:24:55;;;;;;;8.80;6.07;;;;;15.10;96862.00;;;;8362309;28;20217;-70
2022/10/05 18:34:22;;;;;;;9.82;6.18;;;;;15.10;96866.00;;;;8361160;28;20704;-73
2022/10/05 18:38:53;;;;;;;10.00;6.18;;;;;15.00;96876.00;;;;8358967;28;20217;-73
2022/10/05 18:43:30;;;;;;;9.57;6.82;;;;;15.00;96867.00;;;;8357121;28;20544;-72
2022/10/05 18:48:10;;;;;;;14.73;7.22;;;;;14.90;96869.00;;;;8360391;28;20216;-73
2022/10/05 18:52:48;;;;;;;10.55;5.80;;;;;14.90;96871.00;;;;8361558;28;20223;-73
2022/10/05 18:56:53;;;;;;;11.82;6.47;;;;;14.90;96876.00;;;;8356819;28;20220;-72
2022/10/05 19:01:38;;;;;;;11.30;7.03;;;;;14.80;96872.00;;;;8357371;28;20212;-73
2022/10/05 19:05:48;;;;;;;9.13;5.63;;;;;14.70;96884.00;;;;8361242;28;20217;-73
2022/10/05 19:10:21;;;;;;;8.57;6.07;;;;;14.60;96878.00;;;;8361474;28;20561;-72
2022/10/05 19:14:57;;;;;;;15.98;7.28;;;;;14.40;96887.00;;;;8360562;28;20228;-72
2022/10/05 19:19:22;;;;;;;13.15;6.43;;;;;14.20;96882.00;;;;8360595;28;20558;-73
2022/10/05 19:23:53;;;;;;;14.60;7.47;;;;;14.00;96891.00;;;;8360982;28;20255;-72
2022/10/05 19:28:22;;;;;;;16.70;6.63;;;;;13.80;96899.00;;;;8359041;28;20212;-73
2022/10/05 19:32:47;;;;;;;10.50;6.85;;;;;13.60;96901.00;;;;8360310;28;20719;-73
2022/10/05 19:37:24;;;;;;;11.05;6.22;;;;;13.40;96906.00;;;;8360737;28;20216;-73
2022/10/05 19:42:06;;;;;;;15.45;7.82;;;;;13.20;96901.00;;;;8360100;28;20220;-72
2022/10/05 19:46:41;;;;;;;10.20;6.88;;;;;13.10;96908.00;;;;8360283;28;20250;-73
2022/10/05 19:51:15;;;;;;;17.13;8.02;;;;;13.00;96912.00;;;;8359137;28;20217;-73
2022/10/05 19:55:26;;;;;;;11.52;7.38;;;;;12.90;96915.00;;;;8359851;28;20223;-73
2022/10/05 19:59:56;;;;;;;12.48;8.00;;;;;12.90;96917.00;;;;8360206;28;20231;-72
2022/10/05 20:04:36;;;;;;;14.93;7.82;;;;;12.90;96919.00;;;;8359844;28;20228;-72
2022/10/05 20:08:42;;;;;;;11.77;7.28;;;;;12.80;96925.00;;;;8359422;28;20269;-73
2022/10/05 20:13:22;;;;;;;10.55;7.70;;;;;12.70;96931.00;;;;8359494;28;20626;-73
2022/10/05 20:22:24;;;;;;;14.73;7.80;;;;;12.40;96932.00;;;;8359336;28;20211;-72
2022/10/05 20:31:00;;;;;;;19.23;8.55;;;;;12.20;96936.00;;;;8359967;28;20247;-72
2022/10/05 20:35:05;;;;;;;14.82;7.70;;;;;12.10;96938.00;;;;8359626;28;20669;-73
2022/10/05 20:39:12;;;;;;;15.57;8.10;;;;;12.00;96950.00;;;;8361275;28;20297;-73
2022/10/05 20:43:15;;;;;;;18.23;8.82;;;;;11.90;96960.00;;;;8365233;28;20594;-73
2022/10/05 20:47:54;;;;;;;20.52;8.85;;;;;11.90;96974.00;;;;8364176;28;20684;-73
2022/10/05 20:51:58;;;;;;;12.93;7.32;;;;;11.80;96975.00;;;;8365783;28;20228;-72
2022/10/05 20:56:03;;;;;;;17.02;7.85;;;;;11.60;96974.00;;;;8364630;28;20216;-72
2022/10/05 21:00:07;;;;;;;18.10;8.45;;;;;11.50;96986.00;;;;8364619;28;20239;-73
2022/10/05 21:04:12;;;;;;;14.68;8.93;;;;;11.40;96982.00;;;;8365149;28;20306;-72
2022/10/05 21:08:16;;;;;;;17.50;9.07;;;;;11.30;96988.00;;;;8364469;28;20234;-71
2022/10/05 21:12:19;;;;;;;22.20;9.23;;;;;11.20;96984.00;;;;8364378;28;20234;-72
2022/10/05 21:16:56;;;;;;;18.35;10.10;;;;;11.20;96985.00;;;;8364484;28;20289;-72
2022/10/05 21:21:01;;;;;;;24.92;9.68;;;;;11.30;96999.00;;;;8363982;28;20246;-72
2022/10/05 21:25:35;;;;;;;19.23;10.18;;;;;11.30;96999.00;;;;8363834;28;20263;-72
2022/10/05 21:29:40;;;;;;;24.65;9.73;;;;;11.20;97001.00;;;;8363825;28;20290;-72
2022/10/05 21:33:43;;;;;;;26.60;10.98;;;;;11.30;97003.00;;;;8363610;28;20240;-72
2022/10/05 21:38:21;;;;;;;23.02;10.23;;;;;11.20;97003.00;;;;8363975;28;20225;-72
2022/10/05 21:42:24;;;;;;;17.15;9.35;;;;;11.10;97010.00;;;;8362863;28;20216;-73
2022/10/05 21:47:03;;;;;;;26.35;10.52;;;;;11.00;97015.00;;;;8364158;28;20662;-73
2022/10/05 21:51:08;;;;;;;22.55;9.32;;;;;11.00;97015.00;;;;8362528;28;20307;-72
2022/10/05 21:55:13;;;;;;;17.83;9.07;;;;;10.90;97006.00;;;;8363460;28;20229;-72
2022/10/05 21:59:46;;;;;;;261.83;19.02;;;;;10.70;97020.00;;;;8362790;28;20224;-72
2022/10/05 22:03:49;;;;;;;20.02;10.38;;;;;10.70;97019.00;;;;8362576;28;20236;-72
2022/10/05 22:13:10;;;;;;;21.25;8.98;;;;;10.70;97039.00;;;;8362848;28;20692;-72
2022/10/05 22:17:44;;;;;;;22.92;8.85;;;;;10.60;97032.00;;;;8362045;28;20224;-72
2022/10/05 22:21:48;;;;;;;117.25;15.02;;;;;10.50;97037.00;;;;8362415;28;20217;-72
2022/10/05 22:25:51;;;;;;;32.08;9.65;;;;;10.40;97038.00;;;;8362137;28;20225;-72
2022/10/05 22:30:29;;;;;;;137.05;15.23;;;;;10.30;97041.00;;;;8362022;28;20216;-71
2022/10/05 22:34:33;;;;;;;144.40;16.65;;;;;10.30;97042.00;;;;8361429;28;20645;-71
2022/10/05 22:38:36;;;;;;;129.32;15.45;;;;;10.30;97047.00;;;;8361944;28;20216;-71
2022/10/05 22:43:13;;;;;;;245.25;23.75;;;;;10.40;97055.00;;;;8361222;28;20224;-71
2022/10/05 22:47:51;;;;;;;36.60;12.48;;;;;10.50;97056.00;;;;8361593;28;20565;-71
2022/10/05 22:52:26;;;;;;;125.25;15.73;;;;;10.40;97062.00;;;;8356122;28;20221;-72
2022/10/05 22:56:29;;;;;;;30.58;10.73;;;;;10.40;97057.00;;;;8361720;28;20224;-72
2022/10/05 23:00:33;;;;;;;34.33;9.82;;;;;10.30;97057.00;;;;8361445;28;20309;-72
2022/10/05 23:05:12;;;;;;;18.08;9.25;;;;;10.30;97070.00;;;;8359908;28;20224;-71
2022/10/05 23:09:15;;;;;;;29.95;10.30;;;;;10.20;97066.00;;;;8360791;28;20218;-71
2022/10/05 23:13:18;;;;;;;16.67;9.25;;;;;10.10;97079.00;;;;8360582;28;20223;-72
2022/10/05 23:17:56;;;;;;;19.20;10.43;;;;;10.10;97083.00;;;;8360658;28;20227;-72
2022/10/05 23:22:00;;;;;;;20.70;9.90;;;;;10.00;97072.00;;;;8348421;28;20212;-72
2022/10/05 23:26:04;;;;;;;18.33;8.70;;;;;10.00;97075.00;;;;8361286;28;20258;-71
2022/10/05 23:30:38;;;;;;;14.03;8.43;;;;;10.00;97085.00;;;;8360029;28;20220;-71